createdAt,value
2019-01-20T00:08:12.248Z,87.99
2019-01-20T00:12:20.938Z,88.31
2019-01-20T00:18:49.188Z,88.35
2019-01-20T00:21:26.685Z,88.35
2019-01-20T00:22:23.629Z,89.30
2019-01-20T00:23:08.926Z,88.49
2019-01-20T00:24:08.889Z,89.03
2019-01-20T00:25:11.708Z,89.13
2019-01-20T00:38:55.195Z,90.23
2019-01-20T06:02:06.623Z,96.21
2019-01-20T06:22:50.110Z,97.06
2019-01-20T06:23:49.872Z,96.95
2019-01-20T06:24:49.776Z,97.17
2019-01-20T06:27:41.797Z,96.85
2019-01-20T06:28:41.472Z,96.95
2019-01-20T06:29:43.135Z,97.06
2019-01-20T08:01:57.788Z,97.11
2019-01-20T09:26:17.757Z,99.19
2019-01-20T09:27:14.497Z,99.25
2019-01-20T09:29:35.673Z,98.61
2019-01-20T09:30:33.841Z,98.79
2019-01-20T09:31:34.672Z,98.99
2019-01-20T09:35:18.754Z,98.68
2019-01-20T09:36:18.529Z,99.21
2019-01-20T09:37:18.423Z,99.31
2019-01-20T09:38:18.204Z,99.31
2019-01-20T09:44:44.424Z,97.58
2019-01-20T09:53:18.394Z,95.11
2019-01-20T09:55:29.468Z,94.59
2019-01-20T09:56:29.178Z,94.59
2019-01-20T10:01:11.872Z,91.96
2019-01-20T10:02:10.782Z,91.74
2019-01-20T10:04:31.237Z,91.42
2019-01-20T10:05:30.854Z,91.64
2019-01-20T10:08:22.943Z,88.27
2019-01-20T10:09:22.552Z,88.90
2019-01-20T10:14:01.565Z,89.11
2019-01-20T10:15:07.342Z,89.53
2019-01-20T10:19:20.933Z,88.48
2019-01-20T10:20:19.254Z,88.33
2019-01-20T10:21:18.877Z,88.54
2019-01-20T10:22:19.461Z,88.58
2019-01-20T10:23:18.727Z,88.37
2019-01-20T10:24:18.613Z,88.54
2019-01-20T10:25:18.639Z,88.65
2019-01-20T10:26:18.796Z,87.32
2019-01-20T10:27:18.646Z,87.63
2019-01-20T10:28:19.026Z,87.91
2019-01-20T10:29:23.746Z,86.96
2019-01-20T10:30:19.620Z,87.81
2019-01-20T10:31:18.579Z,87.81
2019-01-20T10:32:18.561Z,87.38
2019-01-20T10:33:18.536Z,87.70
2019-01-20T10:34:18.679Z,87.24
2019-01-20T10:35:18.441Z,87.38
2019-01-20T10:36:22.874Z,87.24
2019-01-20T10:37:18.516Z,87.35
2019-01-20T10:38:18.466Z,87.24
2019-01-20T10:39:18.505Z,87.03
2019-01-20T10:41:30.439Z,87.35
2019-01-20T10:42:29.986Z,87.45
2019-01-20T10:43:29.546Z,85.97
2019-01-20T10:44:29.554Z,86.08
2019-01-20T10:45:29.601Z,86.08
2019-01-20T10:46:29.991Z,86.40
2019-01-20T10:47:29.419Z,86.36
2019-01-20T10:48:29.312Z,86.46
2019-01-20T10:49:29.290Z,85.83
2019-01-20T10:50:29.284Z,85.94
2019-01-20T10:51:29.480Z,85.83
2019-01-20T10:52:29.237Z,85.73
2019-01-20T10:53:29.405Z,85.83
2019-01-20T10:54:31.925Z,86.15
2019-01-20T10:55:29.295Z,85.62
2019-01-20T10:56:29.253Z,86.15
2019-01-20T10:57:29.215Z,86.21
2019-01-20T10:58:29.179Z,85.20
2019-01-20T10:59:29.195Z,84.95
2019-01-20T11:00:29.294Z,84.84
2019-01-20T11:01:29.089Z,84.95
2019-01-20T11:02:29.091Z,84.95
2019-01-20T11:03:29.149Z,85.16
2019-01-20T11:04:29.103Z,85.37
2019-01-20T11:05:31.555Z,84.95
2019-01-20T11:06:29.083Z,84.95
2019-01-20T11:07:29.269Z,85.16
2019-01-20T11:08:29.072Z,85.16
2019-01-20T11:09:29.116Z,84.42
2019-01-20T11:10:29.046Z,85.13
2019-01-20T11:11:29.057Z,84.39
2019-01-20T11:12:29.011Z,84.18
2019-01-20T11:13:29.120Z,84.70
2019-01-20T11:14:29.952Z,84.08
2019-01-20T11:15:29.137Z,84.18
2019-01-20T11:16:28.946Z,84.70
2019-01-20T11:17:28.944Z,83.97
2019-01-20T11:18:28.952Z,84.08
2019-01-20T11:19:28.895Z,84.28
2019-01-20T11:20:28.895Z,84.91
2019-01-20T11:21:28.896Z,85.23
2019-01-20T11:22:29.089Z,84.49
2019-01-20T11:23:28.869Z,84.08
2019-01-20T11:24:28.888Z,84.14
2019-01-20T11:25:28.895Z,84.45
2019-01-20T11:26:28.958Z,84.14
2019-01-20T11:27:28.832Z,84.25
2019-01-20T11:28:29.713Z,83.83
2019-01-20T11:29:28.817Z,83.20
2019-01-20T11:30:28.774Z,83.09
2019-01-20T11:31:28.802Z,82.78
2019-01-20T11:32:28.757Z,82.25
2019-01-20T11:33:28.845Z,82.74
2019-01-20T11:34:29.046Z,83.26
2019-01-20T11:35:28.807Z,82.53
2019-01-20T11:36:28.775Z,82.10
2019-01-20T11:37:28.715Z,81.58
2019-01-20T11:38:28.841Z,82.10
2019-01-20T11:39:28.754Z,80.60
2019-01-20T11:40:29.406Z,79.66
2019-01-20T11:41:28.790Z,81.34
2019-01-20T11:42:28.728Z,79.41
2019-01-20T11:43:28.650Z,79.52
2019-01-20T11:44:28.710Z,79.30
2019-01-20T11:45:28.636Z,77.84
2019-01-20T11:46:28.689Z,78.05
2019-01-20T11:47:28.588Z,77.70
2019-01-20T11:48:28.610Z,76.75
2019-01-20T11:49:28.720Z,77.48
2019-01-20T11:50:28.583Z,77.48
2019-01-20T11:51:28.556Z,75.35
2019-01-20T11:52:28.578Z,74.73
2019-01-20T11:53:30.257Z,74.52
2019-01-20T11:54:28.662Z,74.52
2019-01-20T11:55:28.534Z,73.57
2019-01-20T11:56:28.559Z,73.65
2019-01-20T11:57:28.488Z,76.06
2019-01-20T11:58:29.341Z,75.35
2019-01-20T11:59:28.464Z,75.74
2019-01-20T12:00:28.460Z,76.09
2019-01-20T12:01:29.010Z,75.78
2019-01-20T12:02:30.425Z,74.62
2019-01-20T12:03:28.444Z,73.99
2019-01-20T12:04:28.403Z,73.36
2019-01-20T12:05:28.401Z,75.01
2019-01-20T12:06:28.414Z,74.80
2019-01-20T12:07:28.386Z,74.48
2019-01-20T12:08:30.708Z,74.93
2019-01-20T12:09:28.380Z,75.01
2019-01-20T12:10:28.353Z,74.52
2019-01-20T12:11:28.348Z,73.47
2019-01-20T12:12:28.414Z,75.11
2019-01-20T12:13:28.310Z,73.57
2019-01-20T12:14:28.328Z,73.54
2019-01-20T12:15:28.418Z,74.80
2019-01-20T12:16:28.302Z,74.38
2019-01-20T12:17:28.265Z,74.69
2019-01-20T12:18:28.271Z,73.75
2019-01-20T12:19:28.254Z,72.35
2019-01-20T12:20:28.264Z,73.30
2019-01-20T12:21:28.249Z,73.30
2019-01-20T12:22:28.211Z,73.30
2019-01-20T12:23:28.206Z,72.46
2019-01-20T12:24:28.212Z,72.67
2019-01-20T12:25:28.246Z,73.19
2019-01-20T12:26:28.163Z,73.33
2019-01-20T12:27:28.165Z,71.10
2019-01-20T12:28:28.231Z,73.82
2019-01-20T12:29:28.312Z,72.88
2019-01-20T12:30:28.920Z,72.88
2019-01-20T12:31:28.156Z,73.19
2019-01-20T12:32:28.250Z,72.67
2019-01-20T12:33:28.122Z,70.89
2019-01-20T12:34:28.093Z,73.19
2019-01-20T12:35:28.116Z,73.82
2019-01-20T12:36:28.069Z,73.58
2019-01-20T12:37:28.085Z,73.40
2019-01-20T12:38:28.042Z,71.90
2019-01-20T12:39:28.025Z,74.87
2019-01-20T12:40:29.534Z,72.56
2019-01-20T12:41:28.118Z,72.88
2019-01-20T12:42:28.013Z,74.55
2019-01-20T12:43:27.978Z,72.64
2019-01-20T12:44:31.567Z,74.21
2019-01-20T12:45:27.963Z,72.85
2019-01-20T12:46:28.042Z,72.11
2019-01-20T12:47:27.982Z,72.88
2019-01-20T12:48:27.954Z,71.17
2019-01-20T12:49:27.919Z,71.83
2019-01-20T12:50:27.928Z,70.75
2019-01-20T12:51:28.605Z,71.06
2019-01-20T12:52:27.884Z,71.90
2019-01-20T12:53:27.965Z,71.69
2019-01-20T12:54:27.880Z,71.06
2019-01-20T12:55:27.853Z,70.75
2019-01-20T12:56:27.873Z,73.58
2019-01-20T12:57:27.822Z,72.22
2019-01-20T12:58:27.935Z,73.05
2019-01-20T12:59:27.829Z,71.90
2019-01-20T13:00:27.807Z,73.13
2019-01-20T13:01:27.786Z,70.51
2019-01-20T13:02:27.798Z,70.86
2019-01-20T13:03:27.759Z,70.43
2019-01-20T13:04:27.904Z,68.73
2019-01-20T13:05:27.771Z,69.36
2019-01-20T13:06:27.821Z,71.14
2019-01-20T13:07:27.711Z,70.48
2019-01-20T13:08:29.405Z,71.45
2019-01-20T13:09:27.715Z,69.43
2019-01-20T13:10:27.704Z,70.68
2019-01-20T13:11:27.730Z,70.58
2019-01-20T13:12:27.731Z,68.38
2019-01-20T13:13:27.658Z,67.24
2019-01-20T13:14:27.993Z,66.58
2019-01-20T13:15:27.660Z,64.90
2019-01-20T13:16:27.768Z,63.44
2019-01-20T13:17:27.738Z,67.07
2019-01-20T13:18:27.791Z,68.25
2019-01-20T13:19:28.376Z,67.31
2019-01-20T13:20:27.579Z,64.07
2019-01-20T13:21:27.588Z,63.42
2019-01-20T13:22:27.559Z,62.68
2019-01-20T13:23:27.591Z,64.36
2019-01-20T13:24:27.656Z,66.34
2019-01-20T13:25:27.513Z,68.12
2019-01-20T13:26:27.658Z,68.22
2019-01-20T13:27:27.515Z,67.38
2019-01-20T13:28:27.531Z,67.18
2019-01-20T13:29:27.473Z,65.50
2019-01-20T13:30:27.459Z,64.36
2019-01-20T13:31:27.916Z,63.20
2019-01-20T13:32:27.475Z,62.68
2019-01-20T13:33:27.558Z,63.10
2019-01-20T13:34:28.381Z,66.24
2019-01-20T13:35:28.346Z,63.20
2019-01-20T13:37:47.091Z,63.83
2019-01-20T13:38:46.691Z,64.87
2019-01-20T13:39:46.833Z,65.19
2019-01-20T13:40:46.682Z,64.98
2019-01-20T13:41:46.590Z,61.85
2019-01-20T13:42:46.559Z,61.32
2019-01-20T13:43:46.688Z,61.74
2019-01-20T13:44:46.564Z,62.48
2019-01-20T13:45:48.429Z,63.80
2019-01-20T13:46:46.777Z,65.09
2019-01-20T13:47:48.901Z,64.04
2019-01-20T13:50:09.850Z,66.24
2019-01-20T13:51:08.406Z,60.80
2019-01-20T13:53:27.034Z,61.82
2019-01-20T13:54:26.272Z,62.89
2019-01-20T13:55:26.016Z,61.19
2019-01-20T13:56:26.108Z,64.01
2019-01-20T13:57:26.136Z,62.89
2019-01-20T13:58:26.211Z,62.89
2019-01-20T13:59:25.941Z,63.20
2019-01-20T14:00:25.961Z,62.05
2019-01-20T14:05:15.947Z,67.10
2019-01-20T14:07:31.949Z,65.71
2019-01-20T14:08:31.613Z,63.13
2019-01-20T14:09:31.589Z,59.65
2019-01-20T14:10:31.354Z,61.74
2019-01-20T14:11:31.485Z,62.89
2019-01-20T14:12:31.492Z,60.07
2019-01-20T14:13:31.347Z,60.17
2019-01-20T14:14:34.472Z,61.85
2019-01-20T15:05:42.976Z,63.83
2019-01-20T15:06:44.305Z,64.36
2019-01-20T15:07:43.174Z,63.96
2019-01-20T15:08:42.483Z,62.82
2019-01-20T15:09:43.543Z,62.99
2019-01-20T15:12:41.737Z,63.23
2019-01-20T15:25:09.233Z,63.55
2019-01-20T15:26:08.289Z,63.89
2019-01-20T15:28:21.792Z,62.50
2019-01-20T15:29:30.430Z,64.31
2019-01-20T15:30:21.570Z,64.31
2019-01-20T15:31:21.414Z,64.00
2019-01-20T15:32:21.659Z,64.20
2019-01-20T15:33:21.497Z,64.51
2019-01-20T15:34:21.382Z,65.46
2019-01-20T15:35:22.138Z,65.17
2019-01-20T15:36:21.406Z,64.62
2019-01-20T15:37:21.419Z,64.86
2019-01-20T15:38:21.416Z,64.97
2019-01-20T15:39:21.371Z,65.49
2019-01-20T15:40:21.350Z,64.97
2019-01-20T15:41:21.324Z,66.11
2019-01-20T15:42:21.330Z,65.59
2019-01-20T15:43:21.369Z,65.62
2019-01-20T15:44:21.380Z,66.25
2019-01-20T15:45:21.272Z,66.22
2019-01-20T15:46:21.293Z,65.62
2019-01-20T15:47:21.319Z,66.04
2019-01-20T15:48:21.274Z,66.04
2019-01-20T15:49:21.367Z,66.67
2019-01-20T15:50:21.279Z,65.52
2019-01-20T15:53:52.598Z,67.09
2019-01-20T15:54:52.445Z,66.88
2019-01-20T15:55:52.324Z,67.19
2019-01-20T15:56:52.240Z,68.03
2019-01-20T15:58:48.023Z,67.82
2019-01-20T15:59:47.504Z,67.22
2019-01-20T16:00:47.738Z,68.06
2019-01-20T16:01:47.439Z,67.85
2019-01-20T16:02:47.429Z,68.38
2019-01-20T16:03:47.417Z,69.32
2019-01-20T16:04:47.796Z,68.59
2019-01-20T16:05:47.361Z,68.69
2019-01-20T16:06:47.365Z,68.27
2019-01-20T16:07:47.333Z,68.82
2019-01-20T16:08:47.350Z,68.82
2019-01-20T16:09:47.336Z,69.24
2019-01-20T16:10:47.304Z,69.45
2019-01-20T16:11:47.321Z,69.56
2019-01-20T16:12:47.318Z,69.77
2019-01-20T16:13:47.315Z,69.45
2019-01-20T16:14:47.261Z,70.08
2019-01-20T16:15:47.356Z,70.61
2019-01-20T16:16:47.291Z,70.64
2019-01-20T16:17:47.241Z,70.01
2019-01-20T16:18:47.262Z,70.75
2019-01-20T16:19:47.215Z,70.85
2019-01-20T16:20:47.197Z,70.53
2019-01-20T16:21:47.363Z,70.64
2019-01-20T16:22:47.206Z,70.75
2019-01-20T16:23:47.248Z,70.64
2019-01-20T16:24:47.168Z,70.64
2019-01-20T16:25:47.150Z,70.75
2019-01-20T16:26:47.297Z,70.88
2019-01-20T16:27:47.188Z,70.88
2019-01-20T16:28:47.141Z,71.30
2019-01-20T16:29:47.112Z,71.44
2019-01-20T16:30:47.133Z,71.33
2019-01-20T16:31:47.090Z,71.44
2019-01-20T16:32:47.081Z,71.65
2019-01-20T16:33:47.066Z,72.06
2019-01-20T16:34:47.079Z,72.73
2019-01-20T16:35:47.054Z,72.80
2019-01-20T16:36:47.066Z,72.83
2019-01-20T16:37:47.227Z,72.83
2019-01-20T16:38:47.045Z,72.73
2019-01-20T16:39:46.997Z,73.25
2019-01-20T16:40:46.998Z,73.36
2019-01-20T16:41:46.998Z,73.36
2019-01-20T16:42:47.062Z,73.25
2019-01-20T16:43:46.950Z,73.60
2019-01-20T16:44:46.958Z,73.71
2019-01-20T16:45:46.966Z,74.02
2019-01-20T16:46:46.915Z,73.60
2019-01-20T16:47:46.907Z,74.23
2019-01-20T16:48:46.920Z,74.33
2019-01-20T16:49:46.898Z,74.16
2019-01-20T16:50:46.880Z,74.37
2019-01-20T16:51:46.865Z,74.68
2019-01-20T16:52:46.853Z,74.65
2019-01-20T16:53:56.682Z,74.79
2019-01-20T16:54:46.887Z,74.65
2019-01-20T16:55:47.044Z,74.68
2019-01-20T16:56:46.909Z,74.79
2019-01-20T16:57:46.823Z,75.32
2019-01-20T16:58:51.341Z,74.90
2019-01-20T16:59:46.780Z,74.68
2019-01-20T17:00:46.995Z,75.32
2019-01-20T17:01:46.786Z,75.77
2019-01-20T17:02:46.746Z,75.87
2019-01-20T17:03:46.807Z,75.77
2019-01-20T17:04:46.740Z,75.98
2019-01-20T17:05:46.716Z,76.72
2019-01-20T17:06:46.740Z,76.54
2019-01-20T17:07:46.699Z,76.61
2019-01-20T17:08:46.685Z,77.56
2019-01-20T17:09:46.684Z,76.72
2019-01-20T17:10:46.661Z,76.72
2019-01-20T17:11:46.688Z,77.45
2019-01-20T17:12:46.648Z,77.35
2019-01-20T17:13:46.637Z,77.66
2019-01-20T17:14:46.630Z,77.45
2019-01-20T17:15:46.651Z,77.45
2019-01-20T17:16:46.699Z,77.03
2019-01-20T17:17:46.621Z,77.42
2019-01-20T17:18:46.612Z,77.45
2019-01-20T17:19:46.635Z,77.56
2019-01-20T17:20:46.559Z,77.76
2019-01-20T17:21:46.591Z,77.66
2019-01-20T17:22:46.568Z,77.66
2019-01-20T17:23:46.523Z,76.93
2019-01-20T17:24:46.535Z,77.35
2019-01-20T17:25:46.522Z,77.17
2019-01-20T17:26:46.512Z,77.91
2019-01-20T17:27:46.511Z,77.91
2019-01-20T17:28:46.918Z,78.02
2019-01-20T17:29:46.487Z,77.48
2019-01-20T17:30:47.721Z,78.26
2019-01-20T17:31:46.488Z,78.78
2019-01-20T17:32:46.473Z,79.63
2019-01-20T17:33:49.128Z,78.78
2019-01-20T17:34:46.415Z,78.68
2019-01-20T17:35:46.420Z,78.78
2019-01-20T17:36:46.425Z,78.78
2019-01-20T17:37:46.394Z,79.31
2019-01-20T17:38:46.741Z,79.31
2019-01-20T17:39:46.362Z,79.94
2019-01-20T17:40:46.346Z,79.83
2019-01-20T17:41:46.362Z,79.52
2019-01-20T17:42:46.353Z,79.94
2019-01-20T17:43:46.319Z,79.94
2019-01-20T17:44:46.317Z,79.52
2019-01-20T17:45:48.650Z,79.87
2019-01-20T17:46:46.298Z,79.94
2019-01-20T17:47:46.424Z,80.26
2019-01-20T17:48:46.283Z,80.26
2019-01-20T17:49:46.530Z,80.47
2019-01-20T17:50:46.245Z,80.05
2019-01-20T17:51:46.265Z,79.83
2019-01-20T17:52:46.374Z,79.63
2019-01-20T17:53:46.220Z,79.83
2019-01-20T17:54:46.229Z,79.63
2019-01-20T17:55:46.196Z,79.63
2019-01-20T17:56:46.174Z,79.41
2019-01-20T17:57:46.178Z,79.94
2019-01-20T17:58:46.158Z,79.94
2019-01-20T17:59:46.177Z,79.41
2019-01-20T18:00:46.184Z,79.17
2019-01-20T18:01:46.136Z,79.17
2019-01-20T18:02:46.122Z,78.89
2019-01-20T18:03:46.126Z,78.78
2019-01-20T18:04:46.095Z,79.49
2019-01-20T18:05:46.096Z,78.89
2019-01-20T18:06:46.178Z,78.68
2019-01-20T18:07:46.071Z,79.52
2019-01-20T18:08:47.013Z,79.41
2019-01-20T18:09:46.045Z,79.17
2019-01-20T18:10:46.031Z,79.63
2019-01-20T18:11:46.132Z,79.52
2019-01-20T18:12:46.047Z,79.31
2019-01-20T18:13:46.027Z,79.10
2019-01-20T18:14:46.069Z,79.31
2019-01-20T18:15:46.037Z,79.52
2019-01-20T18:16:45.997Z,79.41
2019-01-20T18:17:45.979Z,78.89
2019-01-20T18:18:46.028Z,79.52
2019-01-20T18:19:45.963Z,79.63
2019-01-20T18:20:45.935Z,79.41
2019-01-20T18:21:46.203Z,79.31
2019-01-20T18:22:46.548Z,79.56
2019-01-20T18:23:46.228Z,80.02
2019-01-20T18:24:45.909Z,79.56
2019-01-20T18:25:46.032Z,79.70
2019-01-20T18:26:45.942Z,80.33
2019-01-20T18:27:45.863Z,80.44
2019-01-20T18:28:45.875Z,79.49
2019-01-20T18:29:45.840Z,79.91
2019-01-20T18:30:45.911Z,80.36
2019-01-20T18:31:45.814Z,80.96
2019-01-20T18:32:45.845Z,81.49
2019-01-20T18:33:45.903Z,81.42
2019-01-20T18:34:46.089Z,81.28
2019-01-20T18:36:07.199Z,81.42
2019-01-20T18:50:14.799Z,82.62
2019-01-20T19:05:02.898Z,82.82
2019-01-20T19:06:01.737Z,82.62
2019-01-20T19:10:49.930Z,82.93
2019-01-20T19:12:59.823Z,82.62
2019-01-20T19:13:59.733Z,83.07
2019-01-20T19:14:59.703Z,83.60
2019-01-20T19:15:59.718Z,84.23
2019-01-20T19:16:59.552Z,84.23
2019-01-20T19:17:59.572Z,84.97
2019-01-20T19:19:03.012Z,84.48
2019-01-20T19:19:59.559Z,84.59
2019-01-20T20:38:13.322Z,88.06
2019-01-20T20:51:23.388Z,90.00
2019-01-20T20:57:30.062Z,90.64
2019-01-20T20:58:31.449Z,90.32
2019-01-20T21:03:17.276Z,90.11
2019-01-20T21:04:16.567Z,90.25
2019-01-20T21:05:17.331Z,90.32
2019-01-20T21:06:16.543Z,90.47
2019-01-20T21:07:16.486Z,91.10
2019-01-20T21:08:16.579Z,91.63
